Wetterdaten: Woche 26.10.09 - 01.11.09 (KW44)
Datum Zeit Temp. A. Feuchte A. Luftdruck Regen Wind Richtung Taupunkt Windchill Windben
26.10.2009 00:00 3,8 C 93 % 1018,5 hPa 0,0 l/m 0,0 km/h N 2,8 C 3,8 C 0,0 km/h
26.10.2009 01:00 3,4 C 93 % 1018,3 hPa 0,0 l/m 0,0 km/h N 2,4 C 3,4 C 0,0 km/h
26.10.2009 02:00 3,2 C 93 % 1018,1 hPa 0,0 l/m 0,0 km/h N 2,2 C 3,2 C 0,0 km/h
26.10.2009 03:00 3,3 C 93 % 1018,2 hPa 0,0 l/m 0,0 km/h N 2,3 C 3,3 C 0,0 km/h
26.10.2009 04:00 3,4 C 93 % 1018,3 hPa 0,0 l/m 0,0 km/h N 2,4 C 3,4 C 0,0 km/h
26.10.2009 05:00 3,1 C 93 % 1018,6 hPa 0,0 l/m 0,0 km/h N 2,1 C 3,1 C 0,0 km/h
26.10.2009 06:00 2,6 C 93 % 1019,0 hPa 0,0 l/m 0,0 km/h N 1,6 C 2,6 C 0,0 km/h
26.10.2009 07:00 2,6 C 94 % 1019,7 hPa 0,0 l/m 0,0 km/h N 1,7 C 2,6 C 0,0 km/h
26.10.2009 08:00 5,1 C 94 % 1019,7 hPa 0,0 l/m 0,0 km/h N 4,2 C 5,1 C 0,8 km/h
26.10.2009 09:00 6,5 C 94 % 1019,7 hPa 0,0 l/m 0,0 km/h N 5,6 C 6,5 C 0,0 km/h
26.10.2009 10:00 7,9 C 92 % 1019,9 hPa 0,0 l/m 0,0 km/h N 6,7 C 7,9 C 0,8 km/h
26.10.2009 11:00 9,9 C 88 % 1019,5 hPa 0,0 l/m 0,1 km/h N 7,9 C 9,9 C 0,8 km/h
26.10.2009 12:00 11,8 C 81 % 1019,0 hPa 0,0 l/m 0,2 km/h N 8,6 C 11,8 C 2,0 km/h
26.10.2009 13:00 12,3 C 80 % 1018,8 hPa 0,0 l/m 0,0 km/h N 8,9 C 12,3 C 0,8 km/h
26.10.2009 14:00 12,3 C 80 % 1018,8 hPa 0,0 l/m 0,0 km/h N 9,0 C 12,3 C 0,0 km/h
26.10.2009 15:00 12,0 C 83 % 1018,9 hPa 0,0 l/m 0,0 km/h N 9,2 C 12,0 C 0,0 km/h
26.10.2009 16:00 11,9 C 84 % 1019,1 hPa 0,0 l/m 0,0 km/h N 9,3 C 11,9 C 0,0 km/h
26.10.2009 17:00 11,7 C 85 % 1019,7 hPa 0,0 l/m 0,0 km/h N 9,3 C 11,7 C 0,8 km/h
26.10.2009 18:00 11,6 C 87 % 1020,4 hPa 0,0 l/m 0,6 km/h N-NW 9,5 C 11,6 C 5,6 km/h
26.10.2009 19:00 11,2 C 86 % 1020,5 hPa 0,0 l/m 0,9 km/h NW 8,9 C 11,2 C 6,0 km/h
26.10.2009 20:00 11,1 C 86 % 1020,4 hPa 0,0 l/m 0,3 km/h N 8,8 C 11,1 C 3,6 km/h
26.10.2009 21:00 11,1 C 86 % 1020,3 hPa 0,0 l/m 0,1 km/h N 8,8 C 11,1 C 2,0 km/h
26.10.2009 22:00 11,1 C 84 % 1019,9 hPa 0,0 l/m 0,2 km/h N 8,5 C 11,1 C 3,2 km/h
26.10.2009 23:00 11,2 C 81 % 1019,9 hPa 0,0 l/m 2,5 km/h NW 8,0 C 11,2 C 12,5 km/h
27.10.2009 00:00 12,1 C 78 % 1020,0 hPa 0,0 l/m 2,8 km/h S 8,4 C 12,1 C 15,7 km/h
27.10.2009 01:00 11,8 C 78 % 1020,0 hPa 0,0 l/m 1,4 km/h W-SW 8,0 C 11,8 C 8,8 km/h
27.10.2009 02:00 11,3 C 80 % 1019,9 hPa 0,0 l/m 0,9 km/h S-SW 7,8 C 11,3 C 7,3 km/h
27.10.2009 03:00 11,3 C 80 % 1020,1 hPa 0,0 l/m 2,0 km/h S 7,9 C 11,3 C 13,7 km/h
27.10.2009 04:00 11,7 C 75 % 1019,8 hPa 0,0 l/m 5,1 km/h W 7,5 C 11,7 C 22,1 km/h
27.10.2009 05:00 11,9 C 71 % 1019,9 hPa 0,0 l/m 4,6 km/h W-SW 6,9 C 11,9 C 14,5 km/h
27.10.2009 06:00 11,8 C 71 % 1020,0 hPa 0,0 l/m 4,3 km/h SW 6,8 C 11,8 C 16,9 km/h
27.10.2009 07:00 11,7 C 72 % 1020,4 hPa 0,0 l/m 4,4 km/h W-NW 6,8 C 11,7 C 14,5 km/h
27.10.2009 08:00 11,9 C 72 % 1020,4 hPa 0,0 l/m 5,0 km/h NW 6,9 C 11,8 C 18,5 km/h
27.10.2009 09:00 13,1 C 68 % 1020,7 hPa 0,0 l/m 3,7 km/h S 7,3 C 13,1 C 17,3 km/h
27.10.2009 10:00 14,4 C 64 % 1021,2 hPa 0,0 l/m 5,4 km/h W-SW 7,6 C 14,3 C 20,9 km/h
27.10.2009 11:00 15,0 C 61 % 1021,2 hPa 0,0 l/m 6,1 km/h S-SW 7,5 C 15,0 C 19,3 km/h
27.10.2009 12:00 15,0 C 62 % 1020,9 hPa 0,0 l/m 6,8 km/h W-SW 7,6 C 14,7 C 19,7 km/h
27.10.2009 13:00 15,0 C 62 % 1020,8 hPa 0,0 l/m 6,2 km/h NW 7,7 C 14,9 C 18,9 km/h
27.10.2009 14:00 13,9 C 65 % 1021,1 hPa 0,0 l/m 5,1 km/h W-SW 7,4 C 13,8 C 18,9 km/h
27.10.2009 15:00 13,3 C 68 % 1021,1 hPa 0,0 l/m 3,5 km/h NW 7,5 C 13,3 C 13,3 km/h
27.10.2009 16:00 13,0 C 69 % 1021,1 hPa 0,0 l/m 2,5 km/h S-SW 7,5 C 13,0 C 12,1 km/h
27.10.2009 17:00 12,9 C 70 % 1021,4 hPa 0,0 l/m 4,0 km/h S-SW 7,4 C 12,9 C 16,1 km/h
27.10.2009 18:00 12,8 C 71 % 1021,6 hPa 0,0 l/m 3,0 km/h W-SW 7,6 C 12,8 C 11,3 km/h
27.10.2009 19:00 12,7 C 72 % 1021,7 hPa 0,0 l/m 3,4 km/h SW 7,8 C 12,7 C 10,5 km/h
27.10.2009 20:00 12,8 C 71 % 1021,8 hPa 0,0 l/m 2,5 km/h S-SW 7,7 C 12,8 C 9,6 km/h
27.10.2009 21:00 12,8 C 71 % 1021,9 hPa 0,0 l/m 2,9 km/h SO 7,6 C 12,8 C 12,1 km/h
27.10.2009 22:00 12,3 C 73 % 1021,8 hPa 0,0 l/m 1,1 km/h NW 7,6 C 12,3 C 4,8 km/h
27.10.2009 23:00 12,1 C 74 % 1021,8 hPa 0,0 l/m 0,9 km/h N-NW 7,6 C 12,1 C 4,8 km/h
28.10.2009 00:00 12,4 C 72 % 1021,8 hPa 0,0 l/m 1,1 km/h S-SO 7,5 C 12,4 C 8,1 km/h
28.10.2009 01:00 12,2 C 72 % 1021,2 hPa 0,0 l/m 1,1 km/h W-NW 7,3 C 12,2 C 7,2 km/h
28.10.2009 02:00 12,0 C 73 % 1021,2 hPa 0,0 l/m 0,9 km/h W 7,2 C 12,0 C 5,2 km/h
28.10.2009 03:00 11,7 C 73 % 1021,1 hPa 0,0 l/m 0,6 km/h N 7,1 C 11,7 C 3,2 km/h
28.10.2009 04:00 11,5 C 74 % 1021,0 hPa 0,0 l/m 0,6 km/h N 6,9 C 11,5 C 4,8 km/h
28.10.2009 05:00 11,1 C 75 % 1021,1 hPa 0,0 l/m 0,6 km/h N 6,9 C 11,1 C 2,8 km/h
28.10.2009 06:00 10,8 C 76 % 1021,4 hPa 0,0 l/m 0,7 km/h W 6,7 C 10,8 C 4,0 km/h
28.10.2009 07:00 10,8 C 75 % 1021,7 hPa 0,0 l/m 0,7 km/h W-NW 6,5 C 10,8 C 3,6 km/h
28.10.2009 08:00 11,1 C 74 % 1021,9 hPa 0,0 l/m 1,1 km/h NW 6,6 C 11,1 C 5,6 km/h
28.10.2009 09:00 12,0 C 72 % 1021,8 hPa 0,0 l/m 1,2 km/h W-NW 7,0 C 12,0 C 5,2 km/h
28.10.2009 10:00 12,6 C 70 % 1021,8 hPa 0,0 l/m 2,4 km/h NW 7,4 C 12,6 C 7,2 km/h
28.10.2009 11:00 13,6 C 67 % 1021,3 hPa 0,0 l/m 2,1 km/h S-SW 7,6 C 13,6 C 6,4 km/h
28.10.2009 12:00 14,1 C 63 % 1020,7 hPa 0,0 l/m 4,2 km/h N-NW 7,1 C 14,1 C 9,7 km/h
28.10.2009 13:00 14,4 C 63 % 1020,2 hPa 0,0 l/m 3,9 km/h N-NO 7,3 C 14,4 C 10,1 km/h
28.10.2009 14:00 14,1 C 64 % 1020,0 hPa 0,0 l/m 4,1 km/h NO 7,3 C 14,1 C 8,8 km/h
28.10.2009 15:00 13,0 C 68 % 1020,0 hPa 0,0 l/m 3,2 km/h NW 7,3 C 13,0 C 7,6 km/h
28.10.2009 16:00 12,1 C 72 % 1020,1 hPa 0,0 l/m 2,2 km/h N-NW 7,2 C 12,1 C 6,4 km/h
28.10.2009 17:00 11,3 C 76 % 1020,6 hPa 0,0 l/m 0,0 km/h N 7,2 C 11,3 C 0,8 km/h
28.10.2009 18:00 10,8 C 78 % 1020,4 hPa 0,0 l/m 0,0 km/h N 7,0 C 10,8 C 0,4 km/h
28.10.2009 19:00 10,1 C 78 % 1020,2 hPa 0,0 l/m 0,0 km/h N 6,4 C 10,1 C 1,2 km/h
28.10.2009 20:00 8,7 C 81 % 1020,3 hPa 0,0 l/m 0,0 km/h N 5,6 C 8,7 C 0,8 km/h
28.10.2009 21:00 8,3 C 83 % 1020,2 hPa 0,0 l/m 0,1 km/h N 5,7 C 8,3 C 1,6 km/h
28.10.2009 22:00 8,5 C 82 % 1019,9 hPa 0,0 l/m 0,2 km/h N 5,7 C 8,5 C 4,4 km/h
28.10.2009 23:00 8,1 C 83 % 1019,7 hPa 0,0 l/m 1,4 km/h SW 5,4 C 8,1 C 6,4 km/h
29.10.2009 00:00 7,3 C 82 % 1019,7 hPa 0,0 l/m 0,1 km/h N 4,5 C 7,3 C 1,2 km/h
29.10.2009 01:00 6,5 C 84 % 1019,5 hPa 0,0 l/m 0,1 km/h N 4,0 C 6,5 C 1,6 km/h
29.10.2009 02:00 6,3 C 86 % 1019,3 hPa 0,0 l/m 0,4 km/h N 4,1 C 6,3 C 4,0 km/h
29.10.2009 03:00 6,1 C 86 % 1018,9 hPa 0,0 l/m 0,0 km/h N 3,9 C 6,1 C 0,8 km/h
29.10.2009 04:00 5,7 C 87 % 1018,7 hPa 0,0 l/m 0,1 km/h N 3,7 C 5,7 C 1,6 km/h
29.10.2009 05:00 6,3 C 88 % 1018,7 hPa 0,0 l/m 0,0 km/h N 4,4 C 6,3 C 1,2 km/h
29.10.2009 06:00 6,5 C 88 % 1018,8 hPa 0,0 l/m 0,1 km/h N 4,5 C 6,5 C 1,6 km/h
29.10.2009 07:00 6,9 C 88 % 1019,2 hPa 0,0 l/m 0,1 km/h N 5,1 C 6,9 C 1,6 km/h
29.10.2009 08:00 8,0 C 90 % 1019,4 hPa 0,0 l/m 0,1 km/h N 6,4 C 8,0 C 1,6 km/h
29.10.2009 09:00 9,0 C 89 % 1019,4 hPa 0,0 l/m 0,2 km/h N 7,3 C 9,0 C 2,4 km/h
29.10.2009 10:00 9,1 C 88 % 1019,8 hPa 0,6 l/m 0,0 km/h N 7,3 C 9,1 C 1,2 km/h
29.10.2009 11:00 9,6 C 88 % 1019,9 hPa 0,0 l/m 0,5 km/h NW 7,7 C 9,6 C 3,2 km/h
29.10.2009 12:00 9,8 C 89 % 1020,0 hPa 0,0 l/m 1,5 km/h W-NW 8,1 C 9,8 C 6,8 km/h
29.10.2009 13:00 9,7 C 90 % 1019,9 hPa 0,0 l/m 0,6 km/h N 8,1 C 9,7 C 4,8 km/h
29.10.2009 14:00 10,1 C 90 % 1019,9 hPa 0,0 l/m 1,2 km/h NW 8,5 C 10,1 C 6,8 km/h
29.10.2009 15:00 10,3 C 88 % 1020,3 hPa 0,0 l/m 2,9 km/h NW 8,4 C 10,3 C 8,4 km/h
29.10.2009 16:00 10,3 C 86 % 1020,7 hPa 0,0 l/m 3,4 km/h NW 8,1 C 10,3 C 8,9 km/h
29.10.2009 17:00 10,4 C 86 % 1021,3 hPa 0,0 l/m 3,9 km/h NW 8,0 C 10,4 C 9,7 km/h
29.10.2009 18:00 10,6 C 84 % 1021,8 hPa 0,0 l/m 2,7 km/h NW 8,0 C 10,6 C 8,0 km/h
29.10.2009 19:00 10,6 C 84 % 1022,3 hPa 0,0 l/m 3,6 km/h NW 8,0 C 10,6 C 10,9 km/h
29.10.2009 20:00 10,3 C 86 % 1023,1 hPa 0,0 l/m 3,9 km/h NO 8,1 C 10,3 C 8,4 km/h
29.10.2009 21:00 9,1 C 83 % 1024,3 hPa 0,0 l/m 4,2 km/h NO 6,3 C 9,1 C 11,7 km/h
29.10.2009 22:00 8,2 C 82 % 1025,2 hPa 0,0 l/m 2,6 km/h N-NO 5,3 C 8,2 C 8,5 km/h
29.10.2009 23:00 7,6 C 82 % 1025,9 hPa 0,0 l/m 2,2 km/h N-NW 4,7 C 7,6 C 7,7 km/h
30.10.2009 00:00 7,1 C 81 % 1026,5 hPa 0,0 l/m 3,5 km/h N-NW 4,0 C 7,1 C 9,3 km/h
30.10.2009 01:00 6,5 C 81 % 1027,0 hPa 0,0 l/m 1,8 km/h NW 3,5 C 6,5 C 6,0 km/h
30.10.2009 02:00 5,6 C 82 % 1027,4 hPa 0,0 l/m 0,5 km/h NW 2,6 C 5,6 C 2,0 km/h
30.10.2009 03:00 4,7 C 83 % 1027,8 hPa 0,0 l/m 1,1 km/h NW 2,0 C 4,7 C 4,0 km/h
30.10.2009 04:00 4,2 C 84 % 1028,2 hPa 0,0 l/m 1,1 km/h N-NW 1,6 C 4,2 C 4,0 km/h
30.10.2009 05:00 3,5 C 83 % 1028,7 hPa 0,0 l/m 0,0 km/h N 0,9 C 3,5 C 0,8 km/h
30.10.2009 06:00 2,0 C 84 % 1029,3 hPa 0,0 l/m 0,0 km/h N -0,4 C 2,0 C 0,4 km/h
30.10.2009 07:00 1,8 C 87 % 1029,8 hPa 0,0 l/m 0,2 km/h N -0,1 C 1,8 C 1,6 km/h
30.10.2009 08:00 3,4 C 89 % 1029,9 hPa 0,0 l/m 1,7 km/h N-NW 1,7 C 3,4 C 5,6 km/h
30.10.2009 09:00 5,3 C 83 % 1030,0 hPa 0,0 l/m 2,9 km/h NO 2,6 C 5,3 C 7,6 km/h
30.10.2009 10:00 7,0 C 70 % 1030,3 hPa 0,0 l/m 3,6 km/h N-NO 1,8 C 7,0 C 8,0 km/h
30.10.2009 11:00 7,6 C 68 % 1030,2 hPa 0,0 l/m 3,5 km/h NW 2,0 C 7,6 C 10,1 km/h
30.10.2009 12:00 8,0 C 67 % 1029,8 hPa 0,0 l/m 3,9 km/h NW 2,3 C 8,0 C 9,3 km/h
30.10.2009 13:00 7,7 C 67 % 1029,7 hPa 0,0 l/m 4,1 km/h NW 2,0 C 7,7 C 10,1 km/h
30.10.2009 14:00 7,6 C 65 % 1029,7 hPa 0,0 l/m 3,1 km/h N-NW 1,4 C 7,6 C 8,0 km/h
30.10.2009 15:00 7,0 C 66 % 1029,7 hPa 0,0 l/m 2,9 km/h N-NW 1,1 C 7,0 C 7,2 km/h
30.10.2009 16:00 6,4 C 66 % 1029,9 hPa 0,0 l/m 2,4 km/h N-NW 0,5 C 6,4 C 6,4 km/h
30.10.2009 17:00 5,9 C 68 % 1030,1 hPa 0,0 l/m 1,6 km/h NO 0,5 C 5,9 C 5,6 km/h
30.10.2009 18:00 5,0 C 71 % 1030,3 hPa 0,0 l/m 0,3 km/h N 0,2 C 5,0 C 3,6 km/h
30.10.2009 19:00 2,6 C 81 % 1030,5 hPa 0,0 l/m 0,1 km/h N -0,3 C 2,6 C 2,0 km/h
30.10.2009 20:00 1,8 C 84 % 1030,8 hPa 0,0 l/m 0,1 km/h N -0,5 C 1,8 C 2,0 km/h
30.10.2009 21:00 1,4 C 84 % 1030,9 hPa 0,0 l/m 0,0 km/h N -0,9 C 1,4 C 1,2 km/h
30.10.2009 22:00 0,8 C 85 % 1030,6 hPa 0,0 l/m 0,0 km/h N -1,5 C 0,8 C 0,8 km/h
30.10.2009 23:00 0,3 C 86 % 1030,4 hPa 0,0 l/m 0,0 km/h N -1,8 C 0,3 C 2,4 km/h
31.10.2009 00:00 -0,0 C 86 % 1030,2 hPa 0,0 l/m 0,0 km/h N -2,1 C -0,0 C 0,8 km/h
31.10.2009 01:00 -0,8 C 87 % 1030,1 hPa 0,0 l/m 0,0 km/h N -2,7 C -0,8 C 0,0 km/h
31.10.2009 02:00 -1,2 C 87 % 1030,1 hPa 0,0 l/m 0,0 km/h N -3,0 C -1,2 C 0,0 km/h
31.10.2009 03:00 -1,3 C 88 % 1029,8 hPa 0,0 l/m 0,0 km/h N -3,0 C -1,3 C 0,0 km/h
31.10.2009 04:00 -1,4 C 89 % 1029,9 hPa 0,0 l/m 0,0 km/h N -3,0 C -1,4 C 0,0 km/h
31.10.2009 05:00 -0,3 C 90 % 1029,8 hPa 0,0 l/m 0,0 km/h N -1,7 C -0,3 C 0,8 km/h
31.10.2009 06:00 0,7 C 90 % 1030,3 hPa 0,0 l/m 0,3 km/h N -0,8 C 0,7 C 3,2 km/h
31.10.2009 07:00 1,0 C 90 % 1030,9 hPa 0,0 l/m 0,3 km/h N -0,5 C 1,0 C 2,4 km/h
31.10.2009 08:00 1,2 C 90 % 1031,4 hPa 0,0 l/m 0,2 km/h N -0,2 C 1,2 C 2,8 km/h
31.10.2009 09:00 1,8 C 90 % 1031,4 hPa 0,0 l/m 0,1 km/h N 0,3 C 1,8 C 2,4 km/h
31.10.2009 10:00 2,1 C 89 % 1031,6 hPa 0,0 l/m 0,1 km/h N 0,5 C 2,1 C 1,2 km/h
31.10.2009 11:00 2,8 C 87 % 1031,4 hPa 0,0 l/m 0,1 km/h N 0,9 C 2,8 C 1,6 km/h
31.10.2009 12:00 3,5 C 82 % 1030,9 hPa 0,0 l/m 0,3 km/h N 0,6 C 3,5 C 2,4 km/h
31.10.2009 13:00 3,8 C 79 % 1030,3 hPa 0,0 l/m 0,3 km/h N 0,5 C 3,8 C 3,2 km/h
31.10.2009 14:00 4,1 C 77 % 1029,7 hPa 0,0 l/m 0,2 km/h N 0,5 C 4,1 C 2,0 km/h
31.10.2009 15:00 4,3 C 79 % 1029,4 hPa 0,0 l/m 0,0 km/h N 1,0 C 4,3 C 0,4 km/h
31.10.2009 16:00 4,1 C 81 % 1029,2 hPa 0,0 l/m 0,0 km/h N 1,1 C 4,1 C 0,4 km/h
31.10.2009 17:00 3,8 C 82 % 1029,0 hPa 0,0 l/m 0,0 km/h N 1,0 C 3,8 C 0,4 km/h
31.10.2009 18:00 3,6 C 83 % 1029,1 hPa 0,0 l/m 0,0 km/h N 1,0 C 3,6 C 0,8 km/h
31.10.2009 19:00 3,3 C 83 % 1029,1 hPa 0,0 l/m 1,8 km/h NW 0,6 C 3,3 C 5,2 km/h
31.10.2009 20:00 2,7 C 83 % 1029,1 hPa 0,0 l/m 2,6 km/h N-NW 0,0 C 2,7 C 6,4 km/h
31.10.2009 21:00 2,2 C 84 % 1029,0 hPa 0,0 l/m 1,2 km/h SW -0,2 C 2,2 C 4,8 km/h
31.10.2009 22:00 2,0 C 85 % 1028,6 hPa 0,0 l/m 1,3 km/h SW -0,3 C 2,0 C 8,0 km/h
31.10.2009 23:00 1,9 C 85 % 1028,4 hPa 0,0 l/m 0,4 km/h N -0,4 C 1,9 C 3,6 km/h
01.11.2009 00:00 1,9 C 86 % 1027,9 hPa 0,0 l/m 0,1 km/h N -0,3 C 1,9 C 1,6 km/h
01.11.2009 01:00 2,1 C 86 % 1027,8 hPa 0,0 l/m 0,1 km/h N -0,0 C 2,1 C 1,2 km/h
01.11.2009 02:00 2,1 C 86 % 1027,4 hPa 0,0 l/m 0,1 km/h N 0,0 C 2,1 C 2,4 km/h
01.11.2009 03:00 2,0 C 86 % 1027,1 hPa 0,0 l/m 0,3 km/h N -0,0 C 2,0 C 2,8 km/h
01.11.2009 04:00 2,1 C 86 % 1026,6 hPa 0,0 l/m 0,4 km/h N -0,0 C 2,1 C 3,2 km/h
01.11.2009 05:00 2,1 C 86 % 1026,1 hPa 0,0 l/m 0,2 km/h N 0,0 C 2,1 C 2,8 km/h
01.11.2009 06:00 2,0 C 86 % 1026,2 hPa 0,0 l/m 0,3 km/h N -0,1 C 2,0 C 3,2 km/h
01.11.2009 07:00 1,9 C 86 % 1026,4 hPa 0,0 l/m 0,3 km/h N -0,2 C 1,9 C 3,2 km/h
01.11.2009 08:00 1,7 C 86 % 1026,4 hPa 0,0 l/m 0,1 km/h N -0,4 C 1,7 C 2,0 km/h
01.11.2009 09:00 1,6 C 87 % 1026,3 hPa 0,0 l/m 0,0 km/h N -0,4 C 1,6 C 0,8 km/h
01.11.2009 10:00 2,0 C 88 % 1026,0 hPa 0,0 l/m 0,1 km/h N 0,1 C 2,0 C 1,2 km/h
01.11.2009 11:00 2,4 C 88 % 1025,4 hPa 0,0 l/m 0,1 km/h N 0,6 C 2,4 C 2,0 km/h
01.11.2009 12:00 2,8 C 89 % 1024,6 hPa 0,0 l/m 0,5 km/h N 1,0 C 2,8 C 4,4 km/h
01.11.2009 13:00 3,1 C 88 % 1023,4 hPa 0,0 l/m 1,2 km/h S-SW 1,4 C 3,1 C 8,1 km/h
01.11.2009 14:00 3,5 C 88 % 1022,7 hPa 0,0 l/m 0,1 km/h O 1,6 C 3,5 C 1,6 km/h
01.11.2009 15:00 3,3 C 88 % 1022,0 hPa 0,0 l/m 0,6 km/h N 1,4 C 3,3 C 3,6 km/h
01.11.2009 16:00 3,2 C 88 % 1021,5 hPa 0,0 l/m 0,2 km/h N 1,4 C 3,2 C 2,4 km/h
01.11.2009 17:00 3,3 C 87 % 1021,2 hPa 0,0 l/m 0,2 km/h N 1,2 C 3,3 C 2,8 km/h
01.11.2009 18:00 3,2 C 85 % 1021,0 hPa 0,0 l/m 0,4 km/h N 1,0 C 3,2 C 4,8 km/h
01.11.2009 19:00 3,0 C 85 % 1020,3 hPa 0,0 l/m 0,3 km/h N 0,7 C 3,0 C 3,6 km/h
01.11.2009 20:00 2,9 C 85 % 1019,8 hPa 0,0 l/m 0,3 km/h N 0,6 C 2,9 C 3,6 km/h
01.11.2009 21:00 2,9 C 86 % 1019,2 hPa 0,0 l/m 0,4 km/h N 0,8 C 2,9 C 4,0 km/h
01.11.2009 22:00 3,0 C 87 % 1018,2 hPa 0,0 l/m 0,2 km/h N 1,0 C 3,0 C 4,8 km/h
01.11.2009 23:00 3,1 C 88 % 1017,2 hPa 0,0 l/m 0,3 km/h N 1,3 C 3,1 C 4,0 km/h
Min-Datum _ 31.10.09 27.10.09 01.11.09 - 26.10.09 - 31.10.09 31.10.09 26.10.09
_ Min-Zeit 04:15 11:15 23:45 - 00:00 - 04:00 04:00 00:00
Minimum _ -1,6 C 60 % 1016,9 hPa - 0,0 km/h - -3,3 C -1,6 C 0,0 km/h
Max-Datum _ 27.10.09 26.10.09 31.10.09 29.10.09 27.10.09 - 26.10.09 27.10.09 27.10.09
_ Max-Zeit 11:15 05:00 10:30 10:45 12:15 - 18:00 11:00 04:15
Maximum _ 15,5 C 94 % 1031,7 hPa 0,6 l/m 7,2 km/h
W-SW
- 9,7 C 15,2 C 24,1 km/h
W-SW
Durchschnitt _ 7,1 C 81 % 1023,5 hPa #0,6 l/m 1,3 km/h NW 4,0 C 7,1 C 5,2 km/h